Data for 05/25/2005

Time Sea-Level Adjusted Pressure Absolute Pressure Temperature Relative Humidity Dew Point   
(mb) (inHg) (mb) (inHg) (C) (F) (%) (C) (F)
00:05 1025 30.27 855 25.25 4.1 39.3 79 0.8 33.4
00:10 1025 30.27 855 25.25 4.1 39.4 79 0.8 33.5
00:15 1025 30.27 855 25.25 4 39.2 79 0.6 33.1
00:20 1026 30.3 855 25.25 4.1 39.3 78 0.5 32.9
00:25 1026 30.3 855 25.25 4.1 39.3 78 0.6 33
00:30 1026 30.3 855 25.25 4.1 39.3 78 0.6 33.1
00:35 1026 30.3 855 25.25 4 39.1 79 0.6 33.1
00:40 1026 30.3 855 25.25 3.8 38.9 79 0.5 32.9
00:45 1026 30.3 855 25.25 3.8 38.9 78 0.4 32.8
00:50 1026 30.3 855 25.25 3.9 38.9 79 0.5 32.8
00:55 1026 30.3 855 25.25 3.7 38.6 80 0.5 33
01:00 1026 30.3 855 25.25 3.4 38 81 0.3 32.6
01:05 1026 30.3 855 25.25 3.3 37.9 81 0.3 32.5
01:10 1026 30.3 855 25.25 3.2 37.8 80 0.2 32.3
01:15 1026 30.3 855 25.25 3.3 37.9 80 0.2 32.3
01:20 1026 30.3 855 25.25 3.4 38.1 80 0.2 32.4
01:25 1026 30.3 855 25.25 3.4 38.1 80 0.3 32.5
01:30 1026 30.3 855 25.25 3.4 38.2 79 0.2 32.4
01:35 1026 30.3 855 25.25 3.3 38 80 0.2 32.4
01:40 1026 30.3 855 25.25 3.3 37.9 78 -0.3 31.5
01:45 1026 30.3 855 25.25 3.4 38 78 -0.1 31.9
01:50 1026 30.3 855 25.25 3.1 37.6 80 0 32
01:55 1026 30.3 855 25.25 3.3 38 78 -0.2 31.7
02:00 1026 30.3 855 25.25 3.2 37.7 79 -0.1 31.8
02:05 1026 30.3 855 25.25 2.9 37.2 80 -0.2 31.6
02:10 1026 30.3 855 25.25 2.9 37.3 80 -0.2 31.6
02:15 1026 30.3 855 25.25 2.9 37.2 81 -0.1 31.8
02:20 1026 30.3 855 25.25 2.7 36.8 81 -0.2 31.6
02:25 1026 30.3 855 25.25 2.7 36.8 81 -0.2 31.6
02:30 1026 30.3 855 25.25 2.6 36.6 82 -0.1 31.7
02:35 1026 30.3 855 25.25 2.3 36.1 83 -0.2 31.6
02:40 1026 30.3 855 25.25 2.1 35.8 84 -0.3 31.5
02:45 1026 30.3 855 25.25 2.1 35.7 84 -0.4 31.3
02:50 1026 30.3 855 25.25 2.2 35.9 83 -0.4 31.4
02:55 1026 30.3 855 25.25 2.5 36.5 81 -0.5 31.2
03:00 1026 30.3 855 25.25 2.5 36.5 81 -0.4 31.3
03:05 1026 30.3 855 25.25 2.3 36.1 82 -0.5 31.1
03:10 1026 30.3 855 25.25 2.1 35.8 82 -0.7 30.8
03:15 1026 30.3 855 25.25 2.2 36 81 -0.7 30.8
03:20 1026 30.3 855 25.25 2.4 36.3 79 -0.9 30.4
03:25 1026 30.3 855 25.25 2.5 36.6 79 -0.7 30.8
03:30 1026 30.3 855 25.25 2.4 36.4 80 -0.7 30.7
03:35 1026 30.3 855 25.25 2.4 36.4 79 -0.9 30.5
03:40 1026 30.3 855 25.25 2.7 36.8 79 -0.6 30.9
03:45 1026 30.3 855 25.25 2.5 36.5 79 -0.8 30.5
03:50 1026 30.3 855 25.25 2.5 36.5 79 -0.7 30.7
03:55 1026 30.3 855 25.25 2.1 35.7 82 -0.7 30.7
04:00 1026 30.3 855 25.25 1.9 35.3 81 -1 30.2
04:05 1026 30.3 855 25.25 2 35.6 81 -0.9 30.4
04:10 1026 30.3 855 25.25 2.1 35.8 81 -0.8 30.5
04:15 1026 30.3 855 25.25 1.7 35 84 -0.8 30.6
04:20 1026 30.3 855 25.25 1.3 34.4 85 -0.9 30.3
04:25 1026 30.3 855 25.25 1.2 34.2 86 -0.9 30.3
04:30 1026 30.3 856 25.28 1.1 34 84 -1.3 29.6
04:35 1026 30.3 856 25.28 1.4 34.5 82 -1.4 29.5
04:40 1026 30.3 855 25.25 1.8 35.2 81 -1.2 29.9
04:45 1026 30.3 856 25.28 1.9 35.3 80 -1.2 29.9
04:50 1026 30.3 856 25.28 1.9 35.5 81 -1 30.2
04:55 1026 30.3 856 25.28 1.8 35.2 82 -1 30.2
05:00 1026 30.3 856 25.28 1.7 35.1 83 -0.9 30.4
05:05 1026 30.3 856 25.28 1.7 35.1 82 -1 30.2
05:10 1026 30.3 856 25.28 1.8 35.2 82 -1 30.2
05:15 1027 30.33 856 25.28 1.5 34.7 84 -1 30.2
05:20 1027 30.33 856 25.28 1.4 34.5 84 -1 30.2
05:25 1027 30.33 856 25.28 1.3 34.3 85 -1 30.2
05:30 1027 30.33 856 25.28 1.2 34.2 85 -1 30.2
05:35 1027 30.33 856 25.28 1.2 34.2 85 -1.1 30
05:40 1027 30.33 856 25.28 1.4 34.6 83 -1.1 30.1
05:45 1027 30.33 856 25.28 1.6 34.9 83 -1 30.2
05:50 1027 30.33 856 25.28 1.6 34.8 83 -1 30.2
05:55 1027 30.33 856 25.28 1.6 34.8 83 -1 30.2
06:00 1027 30.33 856 25.28 1.7 35 82 -1 30.2
06:05 1027 30.33 856 25.28 1.9 35.4 81 -1 30.1
06:10 1027 30.33 856 25.28 2 35.6 81 -1 30.2
06:15 1027 30.33 856 25.28 2 35.7 81 -1 30.3
06:20 1027 30.33 856 25.28 2 35.6 81 -0.9 30.3
06:25 1027 30.33 856 25.28 2.1 35.7 80 -1.1 30.1
06:30 1027 30.33 856 25.28 2.1 35.8 80 -1 30.1
06:35 1027 30.33 856 25.28 2.4 36.3 78 -1.1 30.1
06:40 1027 30.33 856 25.28 2.6 36.8 77 -0.9 30.3
06:45 1027 30.33 856 25.28 3 37.4 76 -0.8 30.5
06:50 1027 30.33 856 25.28 3.2 37.7 76 -0.7 30.7
06:55 1027 30.33 856 25.28 3.7 38.6 73 -0.8 30.6
07:00 1027 30.33 856 25.28 3.8 38.8 72 -0.8 30.6
07:05 1027 30.33 856 25.28 4 39.2 71 -0.8 30.6
07:10 1027 30.33 856 25.28 4.6 40.2 70 -0.5 31.1
07:15 1027 30.33 856 25.28 5 40.9 69 -0.3 31.5
07:20 1027 30.33 856 25.28 5.4 41.7 68 -0.1 31.8
07:25 1027 30.33 856 25.28 5.4 41.7 68 -0 32
07:30 1027 30.33 857 25.31 5.7 42.2 67 0 32
07:35 1027 30.33 857 25.31 6 42.8 67 0.3 32.6
07:40 1027 30.33 857 25.31 6.1 43 66 0.2 32.4
07:45 1027 30.33 857 25.31 6.3 43.4 64 0 32.1
07:50 1028 30.36 857 25.31 6.7 44.1 63 0.2 32.3
07:55 1028 30.36 857 25.31 7.1 44.7 62 0.4 32.6
08:00 1028 30.36 857 25.31 7.5 45.6 60 0.4 32.6
08:05 1027 30.33 857 25.31 7.7 45.9 60 0.4 32.7
08:10 1027 30.33 857 25.31 8 46.4 59 0.4 32.8
08:15 1027 30.33 857 25.31 8.3 46.9 59 0.9 33.6
08:20 1027 30.33 857 25.31 8.4 47.2 57 0.4 32.8
08:25 1027 30.33 857 25.31 8.4 47.2 58 0.7 33.2
08:30 1027 30.33 857 25.31 8.8 47.9 56 0.4 32.8
08:35 1027 30.33 857 25.31 9.4 48.9 53 0.2 32.4
08:40 1027 30.33 857 25.31 9.8 49.6 52 0.4 32.7
08:45 1027 30.33 857 25.31 9.6 49.3 51 -0.1 31.9
08:50 1027 30.33 857 25.31 9.1 48.4 55 0.6 33.1
08:55 1028 30.36 857 25.31 8.9 47.9 53 -0.1 31.9
09:00 1028 30.36 857 25.31 8.9 48.1 53 -0.1 31.9
09:05 1028 30.36 857 25.31 8.6 47.5 55 0 32.1
09:10 1028 30.36 857 25.31 9 48.2 55 0.4 32.7
09:15 1028 30.36 857 25.31 9.4 48.9 52 0.1 32.2
09:20 1028 30.36 857 25.31 9.9 49.7 49 -0.4 31.3
09:25 1028 30.36 857 25.31 10.4 50.7 48 0 32
09:30 1028 30.36 857 25.31 10.4 50.6 50 0.3 32.6
09:35 1028 30.36 857 25.31 9.3 48.8 51 -0.3 31.5
09:40 1028 30.36 857 25.31 10.2 50.3 49 -0.1 31.8
09:45 1028 30.36 857 25.31 10.7 51.2 46 -0.5 31.1
09:50 1028 30.36 857 25.31 10.6 51.1 48 0.1 32.1
09:55 1028 30.36 857 25.31 10.8 51.5 46 -0.3 31.4
10:00 1028 30.36 857 25.31 11.6 52.9 43 -0.6 30.9
10:05 1028 30.36 857 25.31 11.6 53 44 -0 31.9
10:10 1028 30.36 857 25.31 11.4 52.4 43 -0.6 30.9
10:15 1028 30.36 857 25.31 11.2 52.1 45 -0.3 31.4
10:20 1028 30.36 857 25.31 11.4 52.5 45 -0.1 31.9
10:25 1028 30.36 857 25.31 11.1 52 47 0.3 32.6
10:30 1028 30.36 857 25.31 11.2 52.2 46 -0 31.9
10:35 1028 30.36 857 25.31 11.5 52.6 43 -0.6 31
10:40 1028 30.36 857 25.31 11.7 53.1 45 0.2 32.3
10:45 1028 30.36 857 25.31 12.2 54 44 0.3 32.6
10:50 1027 30.33 857 25.31 12.7 54.8 44 0.7 33.3
10:55 1028 30.36 857 25.31 12.3 54.1 44 0.5 32.9
11:00 1028 30.36 857 25.31 12.1 53.8 45 0.5 32.9
11:05 1028 30.36 857 25.31 12.2 53.9 43 -0.1 31.8
11:10 1028 30.36 857 25.31 12.4 54.4 44 0.5 32.9
11:15 1028 30.36 857 25.31 12.4 54.4 42 -0 32
11:20 1027 30.33 857 25.31 12.7 54.8 41 -0.2 31.6
11:25 1027 30.33 857 25.31 13.2 55.7 41 0.3 32.5
11:30 1027 30.33 857 25.31 12.8 55.1 41 -0.1 31.8
11:35 1027 30.33 857 25.31 12.7 54.8 42 0.1 32.1
11:40 1027 30.33 857 25.31 12.3 54.1 41 -0.5 31.2
11:45 1027 30.33 856 25.28 13.5 56.4 38 -0.5 31.1
11:50 1027 30.33 856 25.28 13.4 56 40 0.1 32.2
11:55 1027 30.33 856 25.28 13.2 55.7 38 -0.9 30.4
12:00 1027 30.33 856 25.28 13.2 55.7 37 -1 30.3
12:05 1027 30.33 856 25.28 13.6 56.4 35 -1.4 29.5
12:10 1027 30.33 856 25.28 13.9 57 33 -2 28.5
12:15 1027 30.33 856 25.28 13.3 56 35 -1.6 29.1
12:20 1027 30.33 856 25.28 13.7 56.6 34 -2 28.4
12:25 1027 30.33 856 25.28 13.8 56.8 33 -1.9 28.5
12:30 1027 30.33 856 25.28 14.3 57.7 33 -1.6 29.1
12:35 1027 30.33 856 25.28 14 57.1 35 -1.2 29.8
12:40 1027 30.33 856 25.28 14.3 57.8 32 -2 28.4
12:45 1027 30.33 856 25.28 14.5 58.1 32 -1.8 28.8
12:50 1027 30.33 856 25.28 14.6 58.4 32 -2 28.5
12:55 1027 30.33 856 25.28 14.3 57.8 31 -2.3 27.9
13:00 1027 30.33 856 25.28 14.1 57.4 32 -2.2 28
13:05 1027 30.33 856 25.28 13.3 56 33 -2.6 27.3
13:10 1027 30.33 856 25.28 13.9 57.1 33 -1.9 28.5
13:15 1027 30.33 856 25.28 14 57.2 32 -2.2 28.1
13:20 1027 30.33 856 25.28 14.4 57.8 30 -2.8 27
13:25 1027 30.33 856 25.28 14.3 57.8 31 -2.7 27.1
13:30 1027 30.33 856 25.28 14.3 57.7 30 -3 26.6
13:35 1027 30.33 856 25.28 14.2 57.6 30 -3.2 26.3
13:40 1027 30.33 856 25.28 15 58.9 29 -2.9 26.8
13:45 1027 30.33 856 25.28 15 58.9 26 -4.2 24.4
13:50 1027 30.33 856 25.28 14.8 58.6 28 -3.4 25.9
13:55 1027 30.33 856 25.28 14.5 58.1 25 -5 23
14:00 1027 30.33 856 25.28 14.9 58.8 26 -4.5 23.9
14:05 1027 30.33 856 25.28 15.8 60.5 25 -4.2 24.4
14:10 1027 30.33 856 25.28 16.5 61.7 24 -4 24.9
14:15 1027 30.33 856 25.28 15.7 60.2 35 0.2 32.4
14:20 1027 30.33 856 25.28 14.2 57.6 34 -1.3 29.7
14:25 1027 30.33 856 25.28 13.7 56.6 35 -1.4 29.4
14:30 1027 30.33 856 25.28 13.5 56.4 34 -2.1 28.3
14:35 1027 30.33 856 25.28 14 57.1 35 -1.4 29.5
14:40 1027 30.33 856 25.28 14.7 58.4 31 -2.4 27.7
14:45 1027 30.33 856 25.28 14.4 57.9 31 -2.5 27.5
14:50 1026 30.3 856 25.28 13.9 57 32 -2.6 27.2
14:55 1026 30.3 856 25.28 13.8 56.8 29 -4 24.8
15:00 1026 30.3 856 25.28 13.2 55.8 30 -4.1 24.6
15:05 1026 30.3 856 25.28 14.4 57.9 27 -4.2 24.4
15:10 1026 30.3 856 25.28 14.5 58 28 -3.7 25.4
15:15 1026 30.3 856 25.28 14.5 58.1 28 -3.6 25.5
15:20 1026 30.3 856 25.28 15.1 59.2 26 -4 24.9
15:25 1026 30.3 855 25.25 15.7 60.2 27 -3.2 26.2
15:30 1026 30.3 855 25.25 16.3 61.4 26 -3.2 26.3
15:35 1026 30.3 855 25.25 16.3 61.4 25 -3.6 25.5
15:40 1026 30.3 855 25.25 16.1 61.1 25 -3.5 25.6
15:45 1026 30.3 855 25.25 16.1 61 26 -3.2 26.3
15:50 1026 30.3 855 25.25 16.3 61.3 26 -3 26.6
15:55 1026 30.3 855 25.25 16.3 61.4 28 -2.3 27.9
16:00 1026 30.3 855 25.25 14.5 58.1 34 -0.9 30.3
16:05 1026 30.3 856 25.28 12.6 54.8 39 -1 30.1
16:10 1026 30.3 856 25.28 12.6 54.7 35 -2.2 28
16:15 1026 30.3 856 25.28 12.9 55.2 33 -2.7 27.1
16:20 1027 30.33 856 25.28 12.6 54.7 35 -2.4 27.6
16:25 1027 30.33 856 25.28 12.2 53.9 35 -2.7 27.1
16:30 1027 30.33 856 25.28 12.8 55.1 33 -2.9 26.8
16:35 1027 30.33 856 25.28 12.7 54.9 34 -2.6 27.4
16:40 1027 30.33 856 25.28 12.4 54.3 35 -2.7 27.1
16:45 1027 30.33 856 25.28 12.6 54.7 33 -3.1 26.5
16:50 1027 30.33 856 25.28 13.2 55.7 35 -1.7 28.9
16:55 1027 30.33 856 25.28 12.7 54.8 38 -1.3 29.7
17:00 1027 30.33 856 25.28 11.3 52.3 38 -2.6 27.3
17:05 1027 30.33 856 25.28 11.3 52.3 39 -2.1 28.2
17:10 1027 30.33 856 25.28 11.1 51.9 37 -2.9 26.7
17:15 1027 30.33 856 25.28 11.5 52.6 36 -3 26.7
17:20 1027 30.33 856 25.28 11.9 53.4 34 -3.4 25.9
17:25 1027 30.33 856 25.28 12.7 54.9 33 -2.9 26.7
17:30 1027 30.33 856 25.28 12.6 54.7 35 -2.4 27.6
17:35 1027 30.33 856 25.28 12 53.6 37 -2.2 28.1
17:40 1027 30.33 856 25.28 12.3 54.1 35 -2.6 27.3
17:45 1027 30.33 856 25.28 12.6 54.8 34 -2.7 27.2
17:50 1027 30.33 856 25.28 12.5 54.6 32 -3.8 25.1
17:55 1027 30.33 856 25.28 12.4 54.2 32 -3.7 25.3
18:00 1027 30.33 856 25.28 12.5 54.5 32 -3.5 25.7
18:05 1027 30.33 856 25.28 12.6 54.8 32 -3.5 25.7
18:10 1027 30.33 856 25.28 12.8 55 31 -3.7 25.4
18:15 1027 30.33 856 25.28 13.2 55.8 30 -4 24.8
18:20 1027 30.33 856 25.28 13.9 57 30 -3.3 26
18:25 1027 30.33 856 25.28 14.2 57.5 29 -3.4 25.8
18:30 1027 30.33 856 25.28 14.5 58.1 29 -3 26.5
18:35 1027 30.33 856 25.28 14.3 57.8 30 -3.1 26.4
18:40 1027 30.33 856 25.28 14.2 57.5 30 -2.9 26.8
18:45 1027 30.33 856 25.28 14.1 57.3 30 -3.1 26.5
18:50 1027 30.33 856 25.28 14.1 57.4 31 -2.8 27
18:55 1027 30.33 856 25.28 13.8 56.9 31 -2.8 27
19:00 1027 30.33 856 25.28 13.5 56.2 32 -2.8 26.9
19:05 1027 30.33 856 25.28 13.3 55.9 33 -2.6 27.3
19:10 1027 30.33 856 25.28 12.8 55 34 -2.7 27.1
19:15 1027 30.33 856 25.28 12.4 54.3 35 -2.5 27.5
19:20 1027 30.33 856 25.28 12.2 54 35 -2.7 27.2
19:25 1027 30.33 856 25.28 12 53.6 36 -2.5 27.5
19:30 1027 30.33 856 25.28 12 53.6 37 -2.3 27.8
19:35 1027 30.33 856 25.28 12.4 54.3 35 -2.5 27.4
19:40 1027 30.33 856 25.28 12.5 54.4 35 -2.4 27.6
19:45 1027 30.33 856 25.28 12.7 54.8 35 -2.4 27.7
19:50 1027 30.33 856 25.28 13.3 56 35 -1.8 28.8
19:55 1027 30.33 856 25.28 13.5 56.4 34 -1.8 28.7
20:00 1027 30.33 856 25.28 13 55.3 37 -1.3 29.6
20:05 1027 30.33 856 25.28 12.5 54.6 37 -1.8 28.8
20:10 1027 30.33 856 25.28 12.4 54.3 38 -1.4 29.4
20:15 1027 30.33 856 25.28 12.2 54 37 -1.9 28.5
20:20 1027 30.33 856 25.28 12.3 54.1 37 -2 28.4
20:25 1027 30.33 856 25.28 12.1 53.8 39 -1.5 29.3
20:30 1027 30.33 856 25.28 11.9 53.3 39 -1.7 29
20:35 1027 30.33 856 25.28 11.8 53.3 39 -1.6 29.1
20:40 1027 30.33 856 25.28 11.8 53.3 39 -1.8 28.8
20:45 1027 30.33 856 25.28 11.7 53.1 41 -1.1 30.1
20:50 1027 30.33 856 25.28 11.5 52.8 41 -1.2 29.9
20:55 1027 30.33 856 25.28 11.4 52.5 41 -1.2 29.8
21:00 1027 30.33 856 25.28 11.3 52.3 42 -1.2 29.9
21:05 1027 30.33 856 25.28 11.1 52 42 -1.1 30
21:10 1027 30.33 856 25.28 11 51.9 43 -1.1 29.9
21:15 1027 30.33 856 25.28 11 51.8 44 -0.8 30.5
21:20 1027 30.33 856 25.28 11 51.7 44 -0.7 30.7
21:25 1027 30.33 856 25.28 10.9 51.6 45 -0.6 30.9
21:30 1027 30.33 856 25.28 10.8 51.4 47 -0.1 31.9
21:35 1027 30.33 856 25.28 9.9 49.8 53 0.7 33.2
21:40 1027 30.33 856 25.28 9.2 48.5 55 0.7 33.3
21:45 1027 30.33 856 25.28 8.6 47.4 57 0.5 32.9
21:50 1027 30.33 856 25.28 7.9 46.3 58 0.2 32.4
21:55 1027 30.33 856 25.28 7.7 45.8 59 0.2 32.4
22:00 1027 30.33 856 25.28 7.5 45.5 60 0.2 32.3
22:05 1027 30.33 856 25.28 7.1 44.8 63 0.7 33.2
22:10 1027 30.33 856 25.28 6.8 44.2 63 0.2 32.3
22:15 1027 30.33 856 25.28 6.7 44.1 63 0.1 32.3
22:20 1027 30.33 856 25.28 6.8 44.2 60 -0.4 31.3
22:25 1027 30.33 856 25.28 6.9 44.5 59 -0.4 31.2
22:30 1027 30.33 856 25.28 7.2 44.9 57 -0.8 30.6
22:35 1027 30.33 856 25.28 7.2 45 57 -0.8 30.6
22:40 1027 30.33 856 25.28 7.1 44.8 59 -0.4 31.2
22:45 1027 30.33 856 25.28 6.8 44.2 60 -0.4 31.3
22:50 1027 30.33 856 25.28 6.5 43.7 60 -0.8 30.6
22:55 1027 30.33 856 25.28 6.7 44 60 -0.6 31
23:00 1027 30.33 856 25.28 6.5 43.6 61 -0.5 31
23:05 1027 30.33 856 25.28 6.3 43.3 62 -0.5 31.2
23:10 1027 30.33 856 25.28 6 42.8 62 -0.6 30.8
23:15 1027 30.33 856 25.28 6 42.8 62 -0.6 30.9
23:20 1027 30.33 856 25.28 5.9 42.6 63 -0.6 30.9
23:25 1027 30.33 856 25.28 5.8 42.4 64 -0.5 31.1
23:30 1027 30.33 856 25.28 5.8 42.4 64 -0.5 31.1
23:35 1027 30.33 856 25.28 5.7 42.3 65 -0.3 31.4
23:40 1027 30.33 856 25.28 5.7 42.3 65 -0.2 31.6
23:45 1027 30.33 856 25.28 5.8 42.4 65 -0.2 31.7
23:50 1027 30.33 856 25.28 5.7 42.2 66 -0.2 31.6
23:55 1027 30.33 856 25.28 5.3 41.6 67 -0.3 31.5
24:00 1027 30.33 856 25.28 5.1 41.2 68 -0.3 31.5